KVIH/VIH METAR and TAF weather

Enter ICAO airport designator
Station Type Date Time Source
KVIH METAR 2024/04/17 17:53 UTC NOAA

KVIH 171753Z AUTO 28013G24KT 10SM CLR 25/08 A2992 RMK AO2 PK WND 25031/1659 SLP120 T02500078 10256 20167 51012


Station Type Date Time Source
KVIH Decoded METAR 2024/04/17 17:53 UTC NOAA

ROLLA/VICHY ROLLA NATIONAL, MO, United States (KVIH) 38-08N 91-46W 333M
Apr 17, 2024 - 01:53 PM EDT / 2024.04.17 1753 UTC
Wind: from the W (280 degrees) at 15 MPH (13 KT) gusting to 28 MPH (24 KT):0
Visibility: 10 mile(s):0
Sky conditions: clear
Temperature: 77.0 F (25.0 C)
Dew Point: 46.0 F (7.8 C)
Relative Humidity: 33%
Pressure (altimeter): 29.92 in. Hg (1013 hPa)
Pressure tendency: 0.04 inches (1.2 hPa) higher than three hours ago
ob: KVIH 171753Z AUTO 28013G24KT 10SM CLR 25/08 A2992 RMK AO2 PK WND 25031/1659 SLP120 T02500078 10256 20167 51012
cycle: 18

Station Type Date Time Source
KVIH TAF UTC NOAA

Error!

Example: see airport list